sensor_id;sensor_type;location;lat;lon;timestamp;pressure;altitude;pressure_sealevel;temperature;humidity
63343;BME280;49465;57.664;39.686;2023-09-12T00:00:52;100986.25;;;11.47;46.47
63343;BME280;49465;57.664;39.686;2023-09-12T00:03:19;100993.19;;;11.48;46.62
63343;BME280;49465;57.664;39.686;2023-09-12T00:05:56;100986.19;;;11.49;46.25
63343;BME280;49465;57.664;39.686;2023-09-12T00:08:22;100993.97;;;11.51;46.08
63343;BME280;49465;57.664;39.686;2023-09-12T00:10:59;100993.88;;;11.52;46.20
63343;BME280;49465;57.664;39.686;2023-09-12T00:13:25;100999.03;;;11.54;46.05
63343;BME280;49465;57.664;39.686;2023-09-12T00:15:54;100996.34;;;11.55;46.38
63343;BME280;49465;57.664;39.686;2023-09-12T00:18:20;100999.81;;;11.56;46.16
63343;BME280;49465;57.664;39.686;2023-09-12T00:20:46;101004.03;;;11.58;46.15
63343;BME280;49465;57.664;39.686;2023-09-12T00:23:12;101005.66;;;11.61;46.22
63343;BME280;49465;57.664;39.686;2023-09-12T00:25:41;101004.53;;;11.65;46.25
63343;BME280;49465;57.664;39.686;2023-09-12T00:28:08;101000.97;;;11.66;45.96
63343;BME280;49465;57.664;39.686;2023-09-12T00:30:34;101007.84;;;11.68;45.89
63343;BME280;49465;57.664;39.686;2023-09-12T00:33:03;101008.50;;;11.72;45.87
63343;BME280;49465;57.664;39.686;2023-09-12T00:35:32;101009.25;;;11.74;46.22
63343;BME280;49465;57.664;39.686;2023-09-12T00:38:01;100995.19;;;11.75;46.30
63343;BME280;49465;57.664;39.686;2023-09-12T00:40:34;101007.19;;;11.79;45.80
63343;BME280;49465;57.664;39.686;2023-09-12T00:43:08;101012.22;;;11.84;45.92
63343;BME280;49465;57.664;39.686;2023-09-12T00:45:39;100998.97;;;11.85;46.03
63343;BME280;49465;57.664;39.686;2023-09-12T00:48:08;100997.94;;;11.88;46.15
63343;BME280;49465;57.664;39.686;2023-09-12T00:50:35;101007.38;;;11.92;45.90
63343;BME280;49465;57.664;39.686;2023-09-12T00:53:02;101008.06;;;11.96;45.86
63343;BME280;49465;57.664;39.686;2023-09-12T00:55:29;101010.47;;;11.99;46.33
63343;BME280;49465;57.664;39.686;2023-09-12T00:57:57;101013.88;;;12.01;46.29
63343;BME280;49465;57.664;39.686;2023-09-12T01:00:24;101014.44;;;12.06;47.42
63343;BME280;49465;57.664;39.686;2023-09-12T01:02:50;101013.41;;;12.09;46.07
63343;BME280;49465;57.664;39.686;2023-09-12T01:05:19;101014.91;;;12.13;47.38
63343;BME280;49465;57.664;39.686;2023-09-12T01:07:46;101007.69;;;12.16;47.94
63343;BME280;49465;57.664;39.686;2023-09-12T01:10:15;101005.75;;;12.20;46.39
63343;BME280;49465;57.664;39.686;2023-09-12T01:12:44;101011.53;;;12.25;46.28
63343;BME280;49465;57.664;39.686;2023-09-12T01:15:13;101004.31;;;12.29;49.66
63343;BME280;49465;57.664;39.686;2023-09-12T01:17:41;101001.53;;;12.32;46.44
63343;BME280;49465;57.664;39.686;2023-09-12T01:20:08;100998.69;;;12.35;46.32
63343;BME280;49465;57.664;39.686;2023-09-12T01:27:54;100996.25;;;12.46;48.12
63343;BME280;49465;57.664;39.686;2023-09-12T01:30:23;100989.03;;;12.50;47.48
63343;BME280;49465;57.664;39.686;2023-09-12T01:32:54;101004.53;;;12.54;47.29
63343;BME280;49465;57.664;39.686;2023-09-12T01:35:29;101000.75;;;12.58;46.32
63343;BME280;49465;57.664;39.686;2023-09-12T01:37:58;101002.28;;;12.62;46.22
63343;BME280;49465;57.664;39.686;2023-09-12T01:40:46;101011.69;;;12.66;46.69
63343;BME280;49465;57.664;39.686;2023-09-12T01:43:16;101012.22;;;12.72;47.39
63343;BME280;49465;57.664;39.686;2023-09-12T01:45:46;101007.63;;;12.75;48.97
63343;BME280;49465;57.664;39.686;2023-09-12T01:48:23;101011.84;;;12.78;46.57
63343;BME280;49465;57.664;39.686;2023-09-12T01:50:56;101021.28;;;12.82;47.81
63343;BME280;49465;57.664;39.686;2023-09-12T01:53:22;101032.41;;;12.85;47.87
63343;BME280;49465;57.664;39.686;2023-09-12T01:56:06;101034.03;;;12.88;48.92
63343;BME280;49465;57.664;39.686;2023-09-12T01:58:36;101034.59;;;12.93;48.87
63343;BME280;49465;57.664;39.686;2023-09-12T02:01:05;101034.41;;;12.96;51.86
63343;BME280;49465;57.664;39.686;2023-09-12T02:03:39;101038.53;;;13.00;50.27
63343;BME280;49465;57.664;39.686;2023-09-12T02:06:05;101046.03;;;13.06;50.30
63343;BME280;49465;57.664;39.686;2023-09-12T02:08:43;101046.78;;;13.09;49.32
63343;BME280;49465;57.664;39.686;2023-09-12T02:11:13;101044.81;;;13.12;52.14
63343;BME280;49465;57.664;39.686;2023-09-12T02:13:41;101043.75;;;13.15;48.00
63343;BME280;49465;57.664;39.686;2023-09-12T02:16:10;101048.00;;;13.17;49.82
63343;BME280;49465;57.664;39.686;2023-09-12T02:18:48;101039.91;;;13.20;48.98
63343;BME280;49465;57.664;39.686;2023-09-12T02:21:20;101044.13;;;13.23;47.39
63343;BME280;49465;57.664;39.686;2023-09-12T02:23:51;101053.53;;;13.27;47.10
63343;BME280;49465;57.664;39.686;2023-09-12T02:26:20;101055.16;;;13.30;48.78
63343;BME280;49465;57.664;39.686;2023-09-12T02:28:49;101054.94;;;13.33;47.41
63343;BME280;49465;57.664;39.686;2023-09-12T02:31:21;101053.06;;;13.35;47.71
63343;BME280;49465;57.664;39.686;2023-09-12T02:33:51;101053.84;;;13.37;46.99
63343;BME280;49465;57.664;39.686;2023-09-12T02:36:28;101061.53;;;13.40;46.92
63343;BME280;49465;57.664;39.686;2023-09-12T02:39:00;101053.44;;;13.43;48.44
63343;BME280;49465;57.664;39.686;2023-09-12T02:41:29;101053.31;;;13.44;48.02
63343;BME280;49465;57.664;39.686;2023-09-12T02:44:00;101055.84;;;13.46;47.81
63343;BME280;49465;57.664;39.686;2023-09-12T02:46:33;101061.78;;;13.50;47.66
63343;BME280;49465;57.664;39.686;2023-09-12T02:48:59;101054.72;;;13.50;46.86
63343;BME280;49465;57.664;39.686;2023-09-12T02:51:30;101058.09;;;13.52;50.40
63343;BME280;49465;57.664;39.686;2023-09-12T02:53:59;101055.38;;;13.54;48.23
63343;BME280;49465;57.664;39.686;2023-09-12T02:56:28;101053.47;;;13.56;48.97
63343;BME280;49465;57.664;39.686;2023-09-12T02:58:57;101055.91;;;13.59;48.76
63343;BME280;49465;57.664;39.686;2023-09-12T03:01:29;101058.47;;;13.60;51.93
63343;BME280;49465;57.664;39.686;2023-09-12T03:04:03;101063.59;;;13.62;49.83
63343;BME280;49465;57.664;39.686;2023-09-12T03:06:35;101063.50;;;13.63;47.71
63343;BME280;49465;57.664;39.686;2023-09-12T03:09:06;101064.16;;;13.67;49.64
63343;BME280;49465;57.664;39.686;2023-09-12T03:11:35;101073.78;;;13.68;48.10
63343;BME280;49465;57.664;39.686;2023-09-12T03:14:04;101068.28;;;13.71;47.96
63343;BME280;49465;57.664;39.686;2023-09-12T03:16:32;101062.09;;;13.72;49.76
63343;BME280;49465;57.664;39.686;2023-09-12T03:19:01;101063.75;;;13.73;48.59
63343;BME280;49465;57.664;39.686;2023-09-12T03:21:36;101066.31;;;13.75;47.49
63343;BME280;49465;57.664;39.686;2023-09-12T03:24:15;101063.56;;;13.76;47.51
63343;BME280;49465;57.664;39.686;2023-09-12T03:26:46;101059.03;;;13.78;49.64
63343;BME280;49465;57.664;39.686;2023-09-12T03:29:18;101066.94;;;13.78;48.40
63343;BME280;49465;57.664;39.686;2023-09-12T03:31:47;101072.00;;;13.81;47.39
63343;BME280;49465;57.664;39.686;2023-09-12T03:34:14;101074.47;;;13.84;52.18
63343;BME280;49465;57.664;39.686;2023-09-12T03:36:40;101072.66;;;13.85;53.99
63343;BME280;49465;57.664;39.686;2023-09-12T03:39:09;101076.13;;;13.85;49.95
63343;BME280;49465;57.664;39.686;2023-09-12T03:41:41;101074.97;;;13.90;47.43
63343;BME280;49465;57.664;39.686;2023-09-12T03:44:10;101075.84;;;13.90;51.58
63343;BME280;49465;57.664;39.686;2023-09-12T03:46:38;101074.78;;;13.93;50.54
63343;BME280;49465;57.664;39.686;2023-09-12T03:49:05;101073.72;;;13.95;48.95
63343;BME280;49465;57.664;39.686;2023-09-12T03:51:31;101081.53;;;13.97;53.32
63343;BME280;49465;57.664;39.686;2023-09-12T03:53:57;101084.00;;;14.00;52.29
63343;BME280;49465;57.664;39.686;2023-09-12T03:56:26;101076.09;;;14.00;47.98
63343;BME280;49465;57.664;39.686;2023-09-12T03:58:52;101085.66;;;14.01;47.30
63343;BME280;49465;57.664;39.686;2023-09-12T04:01:25;101092.44;;;14.05;49.68
63343;BME280;49465;57.664;39.686;2023-09-12T04:03:54;101095.94;;;14.06;48.20
63343;BME280;49465;57.664;39.686;2023-09-12T04:06:21;101085.16;;;14.09;47.80
63343;BME280;49465;57.664;39.686;2023-09-12T04:08:47;101085.91;;;14.11;52.08
63343;BME280;49465;57.664;39.686;2023-09-12T04:11:13;101088.44;;;14.12;52.31
63343;BME280;49465;57.664;39.686;2023-09-12T04:13:39;101087.50;;;14.13;48.18
63343;BME280;49465;57.664;39.686;2023-09-12T04:16:05;101083.91;;;14.14;47.28
63343;BME280;49465;57.664;39.686;2023-09-12T04:18:37;101091.63;;;14.17;49.33
63343;BME280;49465;57.664;39.686;2023-09-12T04:21:06;101089.00;;;14.17;51.47
63343;BME280;49465;57.664;39.686;2023-09-12T04:23:35;101095.09;;;14.18;47.80
63343;BME280;49465;57.664;39.686;2023-09-12T04:26:04;101101.97;;;14.20;47.17
63343;BME280;49465;57.664;39.686;2023-09-12T04:28:36;101092.16;;;14.22;47.29
63343;BME280;49465;57.664;39.686;2023-09-12T04:31:07;101096.25;;;14.27;47.03
63343;BME280;49465;57.664;39.686;2023-09-12T04:33:42;101100.50;;;14.29;46.88
63343;BME280;49465;57.664;39.686;2023-09-12T04:36:13;101097.66;;;14.32;46.75
63343;BME280;49465;57.664;39.686;2023-09-12T04:38:42;101106.94;;;14.38;46.70
63343;BME280;49465;57.664;39.686;2023-09-12T04:41:17;101105.06;;;14.40;47.25
63343;BME280;49465;57.664;39.686;2023-09-12T04:43:46;101107.50;;;14.43;47.05
63343;BME280;49465;57.664;39.686;2023-09-12T04:46:21;101106.53;;;14.44;46.73
63343;BME280;49465;57.664;39.686;2023-09-12T04:48:55;101098.31;;;14.49;46.88
63343;BME280;49465;57.664;39.686;2023-09-12T04:51:21;101115.00;;;14.49;46.60
63343;BME280;49465;57.664;39.686;2023-09-12T04:53:58;101110.22;;;14.54;46.54
63343;BME280;49465;57.664;39.686;2023-09-12T04:56:32;101113.53;;;14.58;46.89
63343;BME280;49465;57.664;39.686;2023-09-12T04:59:04;101116.91;;;14.60;46.66
63343;BME280;49465;57.664;39.686;2023-09-12T05:01:35;101121.25;;;14.61;47.19
63343;BME280;49465;57.664;39.686;2023-09-12T05:04:10;101122.84;;;14.63;47.07
63343;BME280;49465;57.664;39.686;2023-09-12T05:06:44;101115.66;;;14.66;46.55
63343;BME280;49465;57.664;39.686;2023-09-12T05:09:16;101123.38;;;14.69;46.83
63343;BME280;49465;57.664;39.686;2023-09-12T05:11:47;101130.22;;;14.71;46.78
63343;BME280;49465;57.664;39.686;2023-09-12T05:14:19;101127.50;;;14.73;47.60
63343;BME280;49465;57.664;39.686;2023-09-12T05:16:51;101129.16;;;14.74;48.41
63343;BME280;49465;57.664;39.686;2023-09-12T05:19:19;101134.25;;;14.77;48.09
63343;BME280;49465;57.664;39.686;2023-09-12T05:21:48;101124.44;;;14.79;49.99
63343;BME280;49465;57.664;39.686;2023-09-12T05:24:20;101130.34;;;14.82;49.94
63343;BME280;49465;57.664;39.686;2023-09-12T05:26:49;101132.03;;;14.83;51.36
63343;BME280;49465;57.664;39.686;2023-09-12T05:29:18;101136.13;;;14.88;52.59
63343;BME280;49465;57.664;39.686;2023-09-12T05:31:47;101136.91;;;14.90;47.83
63343;BME280;49465;57.664;39.686;2023-09-12T05:34:18;101139.41;;;14.91;48.08
63343;BME280;49465;57.664;39.686;2023-09-12T05:36:47;101143.66;;;14.94;47.67
63343;BME280;49465;57.664;39.686;2023-09-12T05:39:21;101147.88;;;14.96;48.22
63343;BME280;49465;57.664;39.686;2023-09-12T05:41:50;101147.97;;;14.95;54.06
63343;BME280;49465;57.664;39.686;2023-09-12T05:44:22;101147.88;;;14.96;51.25
63343;BME280;49465;57.664;39.686;2023-09-12T05:46:51;101148.41;;;15.01;49.35
63343;BME280;49465;57.664;39.686;2023-09-12T05:49:21;101143.75;;;15.05;47.77
63343;BME280;49465;57.664;39.686;2023-09-12T05:51:51;101150.50;;;15.09;47.70
63343;BME280;49465;57.664;39.686;2023-09-12T05:54:17;101140.56;;;15.13;51.52
63343;BME280;49465;57.664;39.686;2023-09-12T05:56:46;101146.47;;;15.16;51.64
63343;BME280;49465;57.664;39.686;2023-09-12T05:59:14;101144.47;;;15.20;48.11
63343;BME280;49465;57.664;39.686;2023-09-12T06:01:46;101150.28;;;15.25;47.61
63343;BME280;49465;57.664;39.686;2023-09-12T06:04:15;101150.06;;;15.28;47.25
63343;BME280;49465;57.664;39.686;2023-09-12T06:06:41;101150.50;;;15.35;47.54
63343;BME280;49465;57.664;39.686;2023-09-12T06:09:07;101146.66;;;15.39;47.32
63343;BME280;49465;57.664;39.686;2023-09-12T06:11:40;101149.81;;;15.44;47.10
63343;BME280;49465;57.664;39.686;2023-09-12T06:14:09;101145.88;;;15.50;47.28
63343;BME280;49465;57.664;39.686;2023-09-12T06:16:40;101148.22;;;15.54;47.54
63343;BME280;49465;57.664;39.686;2023-09-12T06:19:09;101153.28;;;15.57;48.00
63343;BME280;49465;57.664;39.686;2023-09-12T06:21:39;101152.09;;;15.61;47.24
63343;BME280;49465;57.664;39.686;2023-09-12T06:24:12;101153.56;;;15.66;48.89
63343;BME280;49465;57.664;39.686;2023-09-12T06:26:47;101149.88;;;15.68;47.79
63343;BME280;49465;57.664;39.686;2023-09-12T06:29:22;101149.56;;;15.73;46.90
63343;BME280;49465;57.664;39.686;2023-09-12T06:31:51;101157.16;;;15.77;47.04
63343;BME280;49465;57.664;39.686;2023-09-12T06:34:17;101158.59;;;15.81;46.91
63343;BME280;49465;57.664;39.686;2023-09-12T06:36:56;101162.59;;;15.87;47.61
63343;BME280;49465;57.664;39.686;2023-09-12T06:39:24;101163.13;;;15.92;46.87
63343;BME280;49465;57.664;39.686;2023-09-12T06:41:56;101160.97;;;15.97;46.87
63343;BME280;49465;57.664;39.686;2023-09-12T06:44:26;101160.56;;;16.04;46.99
63343;BME280;49465;57.664;39.686;2023-09-12T06:46:55;101158.50;;;16.07;46.68
63343;BME280;49465;57.664;39.686;2023-09-12T06:49:30;101164.19;;;16.14;46.63
63343;BME280;49465;57.664;39.686;2023-09-12T06:52:04;101163.75;;;16.20;46.96
63343;BME280;49465;57.664;39.686;2023-09-12T06:54:41;101165.09;;;16.26;46.65
63343;BME280;49465;57.664;39.686;2023-09-12T06:57:13;101164.63;;;16.32;46.78
63343;BME280;49465;57.664;39.686;2023-09-12T06:59:44;101163.31;;;16.37;46.46
63343;BME280;49465;57.664;39.686;2023-09-12T07:02:17;101164.88;;;16.40;46.39
63343;BME280;49465;57.664;39.686;2023-09-12T07:04:44;101167.94;;;16.47;46.73
63343;BME280;49465;57.664;39.686;2023-09-12T07:07:14;101170.94;;;16.53;46.53
63343;BME280;49465;57.664;39.686;2023-09-12T07:09:41;101167.94;;;16.58;46.47
63343;BME280;49465;57.664;39.686;2023-09-12T07:12:07;101173.63;;;16.65;47.62
63343;BME280;49465;57.664;39.686;2023-09-12T07:14:33;101174.09;;;16.70;46.74
63343;BME280;49465;57.664;39.686;2023-09-12T07:16:59;101171.25;;;16.73;47.16
63343;BME280;49465;57.664;39.686;2023-09-12T07:19:28;101171.03;;;16.76;47.50
63343;BME280;49465;57.664;39.686;2023-09-12T07:21:54;101171.59;;;16.79;46.61
63343;BME280;49465;57.664;39.686;2023-09-12T07:24:26;101178.38;;;16.84;47.32
63343;BME280;49465;57.664;39.686;2023-09-12T07:26:52;101174.56;;;16.88;48.04
63343;BME280;49465;57.664;39.686;2023-09-12T07:29:24;101179.50;;;16.92;46.74
63343;BME280;49465;57.664;39.686;2023-09-12T07:31:56;101174.56;;;16.99;46.76
63343;BME280;49465;57.664;39.686;2023-09-12T07:34:23;101175.78;;;17.06;46.66
63343;BME280;49465;57.664;39.686;2023-09-12T07:36:49;101171.91;;;17.10;47.26
63343;BME280;49465;57.664;39.686;2023-09-12T07:39:17;101172.41;;;17.15;46.70
63343;BME280;49465;57.664;39.686;2023-09-12T07:41:45;101167.72;;;17.19;46.59
63343;BME280;49465;57.664;39.686;2023-09-12T07:44:12;101162.16;;;17.22;46.73
63343;BME280;49465;57.664;39.686;2023-09-12T07:46:45;101178.19;;;17.32;47.22
63343;BME280;49465;57.664;39.686;2023-09-12T07:49:20;101164.81;;;17.33;47.50
63343;BME280;49465;57.664;39.686;2023-09-12T07:51:52;101164.81;;;17.33;50.23
63343;BME280;49465;57.664;39.686;2023-09-12T07:54:25;101170.34;;;17.42;47.47
63343;BME280;49465;57.664;39.686;2023-09-12T07:56:53;101168.03;;;17.48;47.15
63343;BME280;49465;57.664;39.686;2023-09-12T07:59:25;101171.06;;;17.55;46.97
63343;BME280;49465;57.664;39.686;2023-09-12T08:02:02;101159.97;;;17.61;46.90
63343;BME280;49465;57.664;39.686;2023-09-12T08:04:31;101156.69;;;17.69;47.11
63343;BME280;49465;57.664;39.686;2023-09-12T08:07:02;101160.66;;;17.74;46.71
63343;BME280;49465;57.664;39.686;2023-09-12T08:12:19;101162.94;;;17.90;46.92
63343;BME280;49465;57.664;39.686;2023-09-12T08:14:48;101164.38;;;17.94;46.72
63343;BME280;49465;57.664;39.686;2023-09-12T08:17:22;101166.13;;;18.05;46.59
63343;BME280;49465;57.664;39.686;2023-09-12T08:19:54;101167.22;;;18.14;47.22
63343;BME280;49465;57.664;39.686;2023-09-12T08:22:25;101171.06;;;18.21;46.57
63343;BME280;49465;57.664;39.686;2023-09-12T08:24:56;101169.19;;;18.33;47.72
63343;BME280;49465;57.664;39.686;2023-09-12T08:27:24;101161.53;;;18.40;46.48
63343;BME280;49465;57.664;39.686;2023-09-12T08:32:53;101164.03;;;18.52;46.88
63343;BME280;49465;57.664;39.686;2023-09-12T08:35:27;101161.81;;;18.57;46.92
63343;BME280;49465;57.664;39.686;2023-09-12T08:37:56;101166.59;;;18.64;46.42
63343;BME280;49465;57.664;39.686;2023-09-12T08:40:22;101162.47;;;18.71;46.55
63343;BME280;49465;57.664;39.686;2023-09-12T08:42:51;101162.91;;;18.76;46.49
63343;BME280;49465;57.664;39.686;2023-09-12T08:45:20;101152.75;;;18.81;46.35
63343;BME280;49465;57.664;39.686;2023-09-12T08:47:50;101155.88;;;18.86;46.61
63343;BME280;49465;57.664;39.686;2023-09-12T08:50:17;101146.66;;;18.90;46.60
63343;BME280;49465;57.664;39.686;2023-09-12T08:52:46;101148.66;;;18.98;46.91
63343;BME280;49465;57.664;39.686;2023-09-12T08:55:13;101145.59;;;19.03;47.07
63343;BME280;49465;57.664;39.686;2023-09-12T08:57:44;101147.00;;;19.07;46.62
63343;BME280;49465;57.664;39.686;2023-09-12T09:00:15;101147.34;;;19.13;46.88
63343;BME280;49465;57.664;39.686;2023-09-12T09:02:41;101143.16;;;19.21;46.69
63343;BME280;49465;57.664;39.686;2023-09-12T09:05:09;101142.63;;;19.27;46.56
63343;BME280;49465;57.664;39.686;2023-09-12T09:07:35;101142.09;;;19.33;46.37
63343;BME280;49465;57.664;39.686;2023-09-12T09:10:05;101135.94;;;19.42;46.88
63343;BME280;49465;57.664;39.686;2023-09-12T09:12:35;101132.59;;;19.50;46.80
63343;BME280;49465;57.664;39.686;2023-09-12T09:15:24;101129.25;;;19.58;46.73
63343;BME280;49465;57.664;39.686;2023-09-12T09:17:52;101128.19;;;19.70;46.50
63343;BME280;49465;57.664;39.686;2023-09-12T09:22:58;101129.63;;;19.93;46.21
63343;BME280;49465;57.664;39.686;2023-09-12T09:25:28;101134.81;;;20.05;46.61
63343;BME280;49465;57.664;39.686;2023-09-12T09:27:57;101132.84;;;20.17;46.62
63343;BME280;49465;57.664;39.686;2023-09-12T09:33:28;101139.41;;;20.32;46.56
63343;BME280;49465;57.664;39.686;2023-09-12T09:36:04;101135.78;;;20.43;46.57
63343;BME280;49465;57.664;39.686;2023-09-12T09:38:30;101133.22;;;20.51;46.36
63343;BME280;49465;57.664;39.686;2023-09-12T09:40:59;101139.97;;;20.65;46.35
63343;BME280;49465;57.664;39.686;2023-09-12T09:43:30;101133.47;;;20.77;46.35
63343;BME280;49465;57.664;39.686;2023-09-12T09:45:57;101137.81;;;20.88;46.51
63343;BME280;49465;57.664;39.686;2023-09-12T09:48:26;101129.47;;;21.01;46.65
63343;BME280;49465;57.664;39.686;2023-09-12T09:51:01;101138.97;;;21.13;46.40
63343;BME280;49465;57.664;39.686;2023-09-12T09:53:28;101135.56;;;21.21;46.59
63343;BME280;49465;57.664;39.686;2023-09-12T09:56:07;101147.16;;;21.29;46.74
63343;BME280;49465;57.664;39.686;2023-09-12T09:58:35;101136.06;;;21.34;46.53
63343;BME280;49465;57.664;39.686;2023-09-12T10:01:01;101137.97;;;21.42;46.77
63343;BME280;49465;57.664;39.686;2023-09-12T10:03:29;101134.75;;;21.48;46.40
63343;BME280;49465;57.664;39.686;2023-09-12T10:05:57;101131.47;;;21.54;46.44
63343;BME280;49465;57.664;39.686;2023-09-12T10:08:26;101131.59;;;21.62;46.84
63343;BME280;49465;57.664;39.686;2023-09-12T10:10:52;101134.34;;;21.70;46.64
63343;BME280;49465;57.664;39.686;2023-09-12T10:13:19;101134.56;;;21.77;46.59
63343;BME280;49465;57.664;39.686;2023-09-12T10:15:46;101136.31;;;21.86;46.85
63343;BME280;49465;57.664;39.686;2023-09-12T10:18:14;101134.03;;;21.91;45.91
63343;BME280;49465;57.664;39.686;2023-09-12T10:20:50;101134.25;;;21.98;46.26
63343;BME280;49465;57.664;39.686;2023-09-12T10:23:29;101132.28;;;22.00;46.40
63343;BME280;49465;57.664;39.686;2023-09-12T10:25:58;101130.00;;;22.05;46.36
63343;BME280;49465;57.664;39.686;2023-09-12T10:28:27;101132.19;;;22.10;46.46
63343;BME280;49465;57.664;39.686;2023-09-12T10:30:53;101136.09;;;22.16;46.54
63343;BME280;49465;57.664;39.686;2023-09-12T10:33:26;101136.44;;;22.21;46.78
63343;BME280;49465;57.664;39.686;2023-09-12T10:35:57;101140.91;;;22.30;46.69
63343;BME280;49465;57.664;39.686;2023-09-12T10:38:26;101148.28;;;22.36;46.71
63343;BME280;49465;57.664;39.686;2023-09-12T10:40:59;101137.84;;;22.43;46.33
63343;BME280;49465;57.664;39.686;2023-09-12T10:43:26;101136.06;;;22.51;46.26
63343;BME280;49465;57.664;39.686;2023-09-12T10:45:59;101139.78;;;22.59;45.73
63343;BME280;49465;57.664;39.686;2023-09-12T10:48:26;101142.63;;;22.57;44.81
63343;BME280;49465;57.664;39.686;2023-09-12T10:50:55;101140.13;;;22.64;44.76
63343;BME280;49465;57.664;39.686;2023-09-12T10:53:21;101142.94;;;22.36;44.20
63343;BME280;49465;57.664;39.686;2023-09-12T10:55:59;101140.50;;;22.43;44.37
63343;BME280;49465;57.664;39.686;2023-09-12T10:58:26;101143.72;;;22.46;44.51
63343;BME280;49465;57.664;39.686;2023-09-12T11:03:39;101143.53;;;22.66;45.06
63343;BME280;49465;57.664;39.686;2023-09-12T11:06:06;101138.91;;;22.76;45.56
63343;BME280;49465;57.664;39.686;2023-09-12T11:08:45;101138.47;;;22.89;45.34
63343;BME280;49465;57.664;39.686;2023-09-12T11:11:31;101132.47;;;22.95;45.51
63343;BME280;49465;57.664;39.686;2023-09-12T11:14:03;101125.91;;;23.07;45.19
63343;BME280;49465;57.664;39.686;2023-09-12T11:16:32;101129.25;;;23.09;43.59
63343;BME280;49465;57.664;39.686;2023-09-12T11:19:17;101124.59;;;23.20;44.77
63343;BME280;49465;57.664;39.686;2023-09-12T11:21:50;101132.19;;;23.33;45.87
63343;BME280;49465;57.664;39.686;2023-09-12T11:24:17;101119.00;;;23.39;42.62
63343;BME280;49465;57.664;39.686;2023-09-12T11:26:56;101124.19;;;23.41;42.00
63343;BME280;49465;57.664;39.686;2023-09-12T11:29:29;101124.19;;;23.41;45.08
63343;BME280;49465;57.664;39.686;2023-09-12T11:31:56;101117.88;;;23.58;43.29
63343;BME280;49465;57.664;39.686;2023-09-12T11:34:27;101122.91;;;23.69;44.64
63343;BME280;49465;57.664;39.686;2023-09-12T11:36:57;101122.31;;;23.84;44.38
63343;BME280;49465;57.664;39.686;2023-09-12T11:39:28;101120.97;;;23.96;44.80
63343;BME280;49465;57.664;39.686;2023-09-12T11:41:55;101123.16;;;24.09;44.98
63343;BME280;49465;57.664;39.686;2023-09-12T11:44:24;101124.97;;;24.17;44.23
63343;BME280;49465;57.664;39.686;2023-09-12T11:46:52;101112.28;;;24.27;44.81
63343;BME280;49465;57.664;39.686;2023-09-12T11:49:21;101113.41;;;24.24;41.52
63343;BME280;49465;57.664;39.686;2023-09-12T11:51:48;101101.56;;;24.27;42.91
63343;BME280;49465;57.664;39.686;2023-09-12T11:54:15;101104.88;;;24.37;43.58
63343;BME280;49465;57.664;39.686;2023-09-12T11:56:41;101103.50;;;24.50;43.47
63343;BME280;49465;57.664;39.686;2023-09-12T11:59:10;101104.53;;;24.48;39.91
63343;BME280;49465;57.664;39.686;2023-09-12T12:01:36;101106.53;;;24.63;43.83
63343;BME280;49465;57.664;39.686;2023-09-12T12:04:03;101110.38;;;24.69;39.68
63343;BME280;49465;57.664;39.686;2023-09-12T12:06:29;101102.81;;;24.80;43.62
63343;BME280;49465;57.664;39.686;2023-09-12T12:08:56;101093.53;;;24.91;43.11
63343;BME280;49465;57.664;39.686;2023-09-12T12:11:22;101103.41;;;24.99;43.18
63343;BME280;49465;57.664;39.686;2023-09-12T12:13:48;101096.84;;;25.10;41.86
63343;BME280;49465;57.664;39.686;2023-09-12T12:16:17;101092.66;;;25.07;39.94
63343;BME280;49465;57.664;39.686;2023-09-12T12:18:44;101095.34;;;25.07;39.37
63343;BME280;49465;57.664;39.686;2023-09-12T12:21:13;101095.56;;;24.97;38.48
63343;BME280;49465;57.664;39.686;2023-09-12T12:23:40;101091.75;;;25.15;42.71
63343;BME280;49465;57.664;39.686;2023-09-12T12:26:09;101089.56;;;25.26;39.28
63343;BME280;49465;57.664;39.686;2023-09-12T12:28:42;101081.50;;;25.35;40.20
63343;BME280;49465;57.664;39.686;2023-09-12T12:31:11;101077.91;;;25.42;42.84
63343;BME280;49465;57.664;39.686;2023-09-12T12:33:37;101071.47;;;25.52;41.52
63343;BME280;49465;57.664;39.686;2023-09-12T12:36:10;101077.81;;;25.59;43.59
63343;BME280;49465;57.664;39.686;2023-09-12T12:38:41;101083.09;;;25.67;41.67
63343;BME280;49465;57.664;39.686;2023-09-12T12:41:09;101079.19;;;25.78;43.77
63343;BME280;49465;57.664;39.686;2023-09-12T12:43:35;101081.44;;;25.89;41.05
63343;BME280;49465;57.664;39.686;2023-09-12T12:46:04;101080.75;;;25.95;38.93
63343;BME280;49465;57.664;39.686;2023-09-12T12:48:35;101079.19;;;26.01;42.27
63343;BME280;49465;57.664;39.686;2023-09-12T12:51:18;101078.28;;;26.09;40.75
63343;BME280;49465;57.664;39.686;2023-09-12T12:53:48;101081.44;;;26.12;41.36
63343;BME280;49465;57.664;39.686;2023-09-12T12:56:19;101073.28;;;26.20;41.68
63343;BME280;49465;57.664;39.686;2023-09-12T12:58:51;101083.13;;;26.28;42.50
63343;BME280;49465;57.664;39.686;2023-09-12T13:01:18;101080.09;;;26.31;38.45
63343;BME280;49465;57.664;39.686;2023-09-12T13:03:50;101073.81;;;26.39;42.20
63343;BME280;49465;57.664;39.686;2023-09-12T13:06:22;101074.72;;;26.46;42.94
63343;BME280;49465;57.664;39.686;2023-09-12T13:08:53;101075.66;;;26.53;40.30
63343;BME280;49465;57.664;39.686;2023-09-12T13:11:20;101070.09;;;26.55;39.61
63343;BME280;49465;57.664;39.686;2023-09-12T13:13:48;101070.09;;;26.55;36.48